map of UVF home
UVF - Airport
Location
City:  St. Lucia, Saint Lucia
Near (Alt.):Vieux Fort
Name:Hewanorra International Airport
ICAO:TLPL
IATA:UVF

Details
Type:Airport (Aerodrome, Airfield)
Use:International (customs port of entry)
Latitude:1343'56"N (13.732222)
Longitude:6057'07"W (-60.951943)
Elevation:14 ft (4 m)
Variation:15.12W (WMM2015v2 magnetic declination)
-0.04 annual change
Runways:1
Longest:9003 × 151 ft (2744 × 46 m)

Time
Time Zone:UTC-4
Local Time:

Weather
METAR:TLPL 041400Z 10015KT 9999 SCT026 28/21 Q1016 NOSIG
TAF:TLPL 041117Z 0412/0512 09015KT 9999 SCT024
TEMPO 0412/0506 SHRA BKN018

Related Locations
Nearby:
Farthest:WATS: 12145 mi / 19546 km
Tardamu [Tardamu Airport], NT, ID

Find:

   beyond  
but within

Other Information
Maps:
NOTAMs:
Links:
Sources:

  
  • flag of Saint Lucia
  

Airport Diagram

Airport diagram for UVF

Airport diagram PDF

Sectional Chart

Flight Planning
at skyvector.com

Satellite Image

Google Maps Satellite view

 

Copyright © 2004-2019 Karl L. Swartz. All rights reserved.
The Great Circle Mapper name and logo are trademarks of the Great Circle Mapper.
All other trademarks mentioned herein belong to their respective owners.
Please see credits for attibutions and further copyright information.

  Follow gcmap on Facebook Follow gcmap on Twitter GCmap on LinkedIn

hCard Microformat

Geo Microformat